Time;durP1;ratioP1;P1;durP2;ratioP2;P2;SDS_P1;SDS_P2;PMS_P1;PMS_P2;Temp;Humidity;BMP_temperature;BMP_pressure;BME280_temperature;BME280_humidity;BME280_pressure;Samples;Min_cycle;Max_cycle;Signal;HPM_P1;HPM_P2
2022/11/09 00:01:46;;;;;;;5.50;1.90;;;;;;;10.98;100.00;100458.81;5036284;28;20025;-82
2022/11/09 00:04:14;;;;;;;10.43;2.00;;;;;;;10.96;100.00;100458.13;5037515;28;20041;-83
2022/11/09 00:06:43;;;;;;;9.23;2.42;;;;;;;10.92;100.00;100453.09;5035567;28;20037;-82
2022/11/09 00:09:08;;;;;;;9.45;2.08;;;;;;;10.84;100.00;100453.03;5052567;28;20041;-82
2022/11/09 00:11:36;;;;;;;11.25;2.38;;;;;;;10.80;100.00;100464.94;5038013;28;20033;-81
2022/11/09 00:14:02;;;;;;;9.25;1.98;;;;;;;10.71;100.00;100458.69;5036528;28;20033;-82
2022/11/09 00:16:29;;;;;;;11.02;2.25;;;;;;;10.63;100.00;100450.63;5037251;28;20048;-83
2022/11/09 00:18:54;;;;;;;13.07;2.65;;;;;;;10.59;100.00;100454.56;5037598;28;20030;-82
2022/11/09 00:21:22;;;;;;;9.55;2.03;;;;;;;10.53;100.00;100458.66;5036441;28;20113;-83
2022/11/09 00:23:48;;;;;;;11.88;2.10;;;;;;;10.46;100.00;100460.22;5035879;28;20060;-83
2022/11/09 00:26:16;;;;;;;12.18;2.45;;;;;;;10.41;100.00;100454.53;5035322;28;20041;-82
2022/11/09 00:28:43;;;;;;;10.55;2.30;;;;;;;10.35;100.00;100460.44;5037839;28;20389;-81
2022/11/09 00:31:16;;;;;;;11.07;1.95;;;;;;;10.34;100.00;100467.56;5037666;28;20080;-82
2022/11/09 00:33:42;;;;;;;6.90;1.88;;;;;;;10.40;100.00;100467.00;5038337;28;20033;-81
2022/11/09 00:36:12;;;;;;;13.73;2.08;;;;;;;10.47;100.00;100464.56;5036656;28;20042;-82
2022/11/09 00:38:47;;;;;;;13.13;2.28;;;;;;;10.57;100.00;100451.22;5037166;28;20038;-81
2022/11/09 00:41:14;;;;;;;6.90;2.15;;;;;;;10.57;100.00;100456.56;5038208;28;20447;-80
2022/11/09 00:43:40;;;;;;;10.93;1.80;;;;;;;10.54;100.00;100454.19;5053043;28;20030;-79
2022/11/09 00:46:06;;;;;;;7.68;2.20;;;;;;;10.50;100.00;100456.28;5035570;28;20159;-83
2022/11/09 00:48:32;;;;;;;6.60;1.98;;;;;;;10.50;100.00;100442.16;5035088;28;20038;-82
2022/11/09 00:50:58;;;;;;;8.45;2.05;;;;;;;10.48;100.00;100446.78;5034757;28;20056;-82
2022/11/09 00:53:25;;;;;;;15.20;2.55;;;;;;;10.48;100.00;100444.13;5035064;28;20034;-81
2022/11/09 00:56:04;;;;;;;11.95;1.92;;;;;;;10.50;100.00;100448.31;5035159;28;20044;-81
2022/11/09 00:58:32;;;;;;;12.18;2.00;;;;;;;10.41;100.00;100446.53;5034487;28;20033;-81
2022/11/09 01:00:58;;;;;;;8.35;2.13;;;;;;;10.33;100.00;100446.41;5034217;28;20478;-81
2022/11/09 01:03:25;;;;;;;10.48;2.40;;;;;;;10.28;100.00;100446.00;5034740;28;20033;-83
2022/11/09 01:05:51;;;;;;;10.15;1.85;;;;;;;10.31;100.00;100443.06;5035391;28;20064;-82
2022/11/09 01:08:17;;;;;;;8.88;2.08;;;;;;;10.32;100.00;100448.22;5034505;28;20480;-82
2022/11/09 01:10:45;;;;;;;13.32;2.50;;;;;;;10.31;100.00;100456.34;5035290;28;20032;-81
2022/11/09 01:13:15;;;;;;;7.70;1.90;;;;;;;10.30;100.00;100452.00;5033856;28;20167;-82
2022/11/09 01:15:51;;;;;;;12.13;3.10;;;;;;;10.28;100.00;100459.31;5034450;28;20026;-82
2022/11/09 01:18:19;;;;;;;10.50;2.10;;;;;;;10.24;100.00;100458.78;5034996;28;20120;-81
2022/11/09 01:20:46;;;;;;;11.88;2.00;;;;;;;10.19;100.00;100456.53;5034298;28;20374;-80
2022/11/09 01:23:14;;;;;;;9.50;1.58;;;;;;;10.20;100.00;100458.22;5034400;28;20021;-83
2022/11/09 01:25:40;;;;;;;13.80;1.90;;;;;;;10.23;100.00;100460.56;5034765;28;20037;-81
2022/11/09 01:28:06;;;;;;;20.88;2.10;;;;;;;10.24;100.00;100466.75;5034945;28;20064;-84
2022/11/09 01:30:34;;;;;;;10.85;2.03;;;;;;;10.25;100.00;100463.09;5038579;28;20033;-83
2022/11/09 01:33:05;;;;;;;12.55;2.22;;;;;;;10.24;100.00;100459.59;5040366;28;20087;-81
2022/11/09 01:35:35;;;;;;;10.40;1.85;;;;;;;10.22;100.00;100466.03;5033514;28;20377;-83
2022/11/09 01:38:02;;;;;;;8.38;1.92;;;;;;;10.22;100.00;100471.38;5034454;28;20037;-80
2022/11/09 01:40:29;;;;;;;15.82;2.40;;;;;;;10.18;100.00;100475.28;5034118;28;20489;-81
2022/11/09 01:42:54;;;;;;;9.15;2.03;;;;;;;10.17;100.00;100470.97;5034072;28;20033;-82
2022/11/09 01:45:22;;;;;;;15.82;2.03;;;;;;;10.21;100.00;100473.19;5033942;28;20489;-82
2022/11/09 01:47:54;;;;;;;10.30;1.90;;;;;;;10.21;100.00;100467.88;5032718;28;20544;-80
2022/11/09 01:50:37;;;;;;;11.45;2.47;;;;;;;10.32;100.00;100466.03;5034675;28;20112;-80
2022/11/09 01:53:08;;;;;;;10.25;2.40;;;;;;;10.36;100.00;100467.41;5037313;28;20037;-81
2022/11/09 01:55:34;;;;;;;17.70;4.00;;;;;;;10.41;100.00;100466.00;5035044;28;20038;-80
2022/11/09 01:58:06;;;;;;;9.07;2.17;;;;;;;10.47;100.00;100474.38;5034578;28;20037;-82
2022/11/09 02:00:36;;;;;;;14.02;2.50;;;;;;;10.55;100.00;100471.81;5035866;28;20033;-83
2022/11/09 02:03:18;;;;;;;13.52;2.03;;;;;;;10.59;100.00;100482.00;5035233;28;20040;-82
2022/11/09 02:05:44;;;;;;;10.25;1.98;;;;;;;10.61;100.00;100476.53;5035957;28;20032;-81
2022/11/09 02:08:14;;;;;;;14.02;2.28;;;;;;;10.58;100.00;100471.50;5034506;28;20063;-81
2022/11/09 02:11:16;;;;;;;8.90;2.22;;;;;;;10.54;100.00;100470.16;5034094;28;20064;-82
2022/11/09 02:13:45;;;;;;;13.52;2.88;;;;;;;10.53;100.00;100460.50;5034546;28;20018;-81
2022/11/09 02:16:12;;;;;;;8.30;2.30;;;;;;;10.55;100.00;100459.38;5033845;28;20055;-82
2022/11/09 02:18:47;;;;;;;12.75;2.17;;;;;;;10.56;100.00;100462.84;5034088;28;20037;-83
2022/11/09 02:21:13;;;;;;;17.48;2.95;;;;;;;10.53;100.00;100456.00;5034524;28;20060;-83
2022/11/09 02:23:38;;;;;;;14.90;2.60;;;;;;;10.50;100.00;100466.94;5049505;28;20118;-81
2022/11/09 02:26:12;;;;;;;19.27;2.80;;;;;;;10.45;100.00;100463.03;5034666;28;20033;-82
2022/11/09 02:28:39;;;;;;;11.50;2.40;;;;;;;10.45;100.00;100469.22;5034507;28;20041;-82
2022/11/09 02:31:09;;;;;;;9.52;1.98;;;;;;;10.41;100.00;100466.00;5034189;28;20463;-82
2022/11/09 02:33:53;;;;;;;12.82;2.55;;;;;;;10.37;100.00;100464.59;5035271;28;20395;-82
2022/11/09 02:36:18;;;;;;;9.05;2.10;;;;;;;10.33;100.00;100473.00;5035442;28;20030;-81
2022/11/09 02:38:44;;;;;;;12.95;2.10;;;;;;;10.32;100.00;100471.34;5035497;28;20117;-81
2022/11/09 02:41:11;;;;;;;10.15;2.15;;;;;;;10.32;100.00;100468.69;5035222;28;20029;-81
2022/11/09 02:43:38;;;;;;;9.70;2.30;;;;;;;10.29;100.00;100468.97;5035255;28;20036;-81
2022/11/09 02:46:03;;;;;;;14.00;2.80;;;;;;;10.27;100.00;100469.13;5032208;28;20044;-81
2022/11/09 02:48:28;;;;;;;14.75;2.22;;;;;;;10.26;100.00;100478.06;5033433;28;20025;-81
2022/11/09 02:50:54;;;;;;;10.85;1.98;;;;;;;10.25;100.00;100471.06;5033300;28;20034;-82
2022/11/09 02:53:19;;;;;;;7.53;2.10;;;;;;;10.28;100.00;100475.25;5033059;28;20087;-81
2022/11/09 02:55:44;;;;;;;14.77;2.80;;;;;;;10.32;100.00;100469.50;5032918;28;20037;-81
2022/11/09 02:58:10;;;;;;;10.57;1.80;;;;;;;10.34;100.00;100461.41;5048491;28;20033;-81
2022/11/09 03:00:35;;;;;;;15.43;2.55;;;;;;;10.30;100.00;100465.31;5033558;28;20060;-81
2022/11/09 03:03:02;;;;;;;8.73;2.30;;;;;;;10.30;100.00;100470.63;5033048;28;20116;-81
2022/11/09 03:05:27;;;;;;;10.07;2.03;;;;;;;10.24;100.00;100448.97;5033140;28;20041;-80
2022/11/09 03:07:53;;;;;;;7.43;1.90;;;;;;;10.14;100.00;100453.47;5033070;28;20026;-81
2022/11/09 03:10:18;;;;;;;13.73;2.20;;;;;;;10.01;100.00;100468.91;5032844;28;20034;-79
2022/11/09 03:12:43;;;;;;;10.80;2.03;;;;;;;9.92;100.00;100478.59;5031822;28;20061;-81
2022/11/09 03:15:09;;;;;;;10.52;2.22;;;;;;;9.84;100.00;100478.47;5033003;28;20041;-80
2022/11/09 03:17:35;;;;;;;10.80;2.58;;;;;;;9.79;100.00;100486.88;5033205;28;20030;-80
2022/11/09 03:20:01;;;;;;;14.00;2.10;;;;;;;9.72;100.00;100501.72;5033460;28;20041;-80
2022/11/09 03:22:26;;;;;;;12.57;2.83;;;;;;;9.68;100.00;100489.69;5033394;28;20029;-80
2022/11/09 03:24:52;;;;;;;15.10;2.25;;;;;;;9.70;100.00;100503.66;5032664;28;20113;-82
2022/11/09 03:27:17;;;;;;;12.85;2.30;;;;;;;9.76;100.00;100510.22;5032814;28;20540;-81
2022/11/09 03:29:42;;;;;;;7.85;2.00;;;;;;;9.77;100.00;100507.44;5033517;28;20167;-78
2022/11/09 03:32:08;;;;;;;13.70;2.75;;;;;;;9.77;100.00;100502.13;5033063;28;20108;-81
2022/11/09 03:34:34;;;;;;;12.40;2.55;;;;;;;9.78;100.00;100511.78;5032890;28;20049;-82
2022/11/09 03:36:59;;;;;;;10.88;2.42;;;;;;;9.82;100.00;100510.50;5033993;28;20030;-80
2022/11/09 03:39:25;;;;;;;8.10;2.00;;;;;;;9.85;100.00;100506.72;5051455;28;20087;-81
2022/11/09 03:41:50;;;;;;;11.20;2.28;;;;;;;9.85;100.00;100515.53;5035042;28;20034;-81
2022/11/09 03:44:15;;;;;;;11.93;1.98;;;;;;;9.91;100.00;100530.06;5036154;28;20036;-82
2022/11/09 03:46:41;;;;;;;8.80;1.70;;;;;;;10.00;100.00;100531.03;5036303;28;20029;-83
2022/11/09 03:49:06;;;;;;;8.45;2.08;;;;;;;10.07;100.00;100543.59;5051788;28;20067;-81
2022/11/09 03:51:31;;;;;;;11.73;2.17;;;;;;;10.14;100.00;100535.91;5051226;28;20324;-80
2022/11/09 03:53:57;;;;;;;12.02;2.10;;;;;;;10.23;100.00;100543.00;5036209;28;20511;-81
2022/11/09 03:56:22;;;;;;;12.35;2.47;;;;;;;10.32;100.00;100543.13;5035742;28;20033;-81
2022/11/09 03:58:47;;;;;;;4.25;1.60;;;;;;;10.35;100.00;100546.38;5035460;28;20029;-80
2022/11/09 04:01:13;;;;;;;9.52;1.90;;;;;;;10.38;100.00;100539.94;5035837;28;20029;-79
2022/11/09 04:03:38;;;;;;;11.00;2.05;;;;;;;10.41;100.00;100548.44;5035971;28;20041;-83
2022/11/09 04:06:04;;;;;;;13.07;2.38;;;;;;;10.43;100.00;100558.09;5050744;28;20120;-82
2022/11/09 04:08:29;;;;;;;11.05;2.53;;;;;;;10.44;100.00;100565.13;5035430;28;20470;-81
2022/11/09 04:10:54;;;;;;;8.55;1.80;;;;;;;10.37;100.00;100562.19;5035820;28;20030;-81
2022/11/09 04:13:20;;;;;;;6.18;1.98;;;;;;;10.26;100.00;100568.47;5035273;28;20037;-81
2022/11/09 04:15:45;;;;;;;7.55;1.70;;;;;;;10.12;100.00;100564.47;5035204;28;20116;-82
2022/11/09 04:18:13;;;;;;;15.57;3.30;;;;;;;10.03;100.00;100563.50;5035441;28;20072;-79
2022/11/09 04:20:39;;;;;;;8.85;1.98;;;;;;;9.98;100.00;100568.38;5035269;28;20041;-81
2022/11/09 04:23:06;;;;;;;10.10;1.95;;;;;;;9.91;100.00;100567.25;5035385;28;20034;-79
2022/11/09 04:25:35;;;;;;;9.30;1.77;;;;;;;9.84;100.00;100564.34;5035806;28;20044;-78
2022/11/09 04:28:01;;;;;;;10.43;1.95;;;;;;;9.78;100.00;100567.56;5035526;28;20026;-81
2022/11/09 04:30:28;;;;;;;12.35;2.13;;;;;;;9.70;100.00;100568.28;5035908;28;20466;-80
2022/11/09 04:32:55;;;;;;;11.52;2.10;;;;;;;9.64;100.00;100571.50;5035843;28;20025;-77
2022/11/09 04:35:20;;;;;;;15.10;2.22;;;;;;;9.62;100.00;100569.94;5035821;28;20044;-79
2022/11/09 04:37:56;;;;;;;9.65;2.13;;;;;;;9.58;100.00;100576.50;5035411;28;20041;-80
2022/11/09 04:40:23;;;;;;;8.82;2.22;;;;;;;9.54;100.00;100570.66;5034485;28;20373;-80
2022/11/09 04:42:49;;;;;;;9.45;1.60;;;;;;;9.51;100.00;100573.56;5036644;28;20033;-80
2022/11/09 04:45:14;;;;;;;7.45;1.80;;;;;;;9.48;100.00;100576.47;5035621;28;20029;-79
2022/11/09 04:47:40;;;;;;;9.82;2.15;;;;;;;9.45;100.00;100580.28;5035499;28;20124;-82
2022/11/09 04:50:06;;;;;;;13.30;2.55;;;;;;;9.43;100.00;100574.25;5035863;28;20064;-81
2022/11/09 04:52:32;;;;;;;9.18;1.50;;;;;;;9.41;100.00;100568.25;5035658;28;20142;-79
2022/11/09 04:54:57;;;;;;;10.68;2.05;;;;;;;9.43;100.00;100568.09;5050600;28;20049;-81
2022/11/09 04:57:23;;;;;;;13.25;2.30;;;;;;;9.40;100.00;100571.03;5035451;28;20472;-81
2022/11/09 04:59:48;;;;;;;7.38;1.98;;;;;;;9.37;100.00;100572.16;5033610;28;20037;-80
2022/11/09 05:02:14;;;;;;;9.07;2.22;;;;;;;9.34;100.00;100572.41;5035568;28;20029;-81
2022/11/09 05:04:39;;;;;;;8.45;1.80;;;;;;;9.32;100.00;100569.91;5034936;28;20029;-81
2022/11/09 05:07:05;;;;;;;10.63;1.83;;;;;;;9.30;100.00;100565.69;5034899;28;20069;-80
2022/11/09 05:09:30;;;;;;;8.35;1.85;;;;;;;9.29;100.00;100564.88;5035283;28;20421;-80
2022/11/09 05:11:56;;;;;;;8.15;1.92;;;;;;;9.32;100.00;100574.38;5033709;28;20037;-80
2022/11/09 05:14:21;;;;;;;13.32;2.28;;;;;;;9.34;100.00;100564.47;5033348;28;20030;-79
2022/11/09 05:16:47;;;;;;;12.15;2.50;;;;;;;9.34;100.00;100557.34;5035098;28;20052;-80
2022/11/09 05:19:12;;;;;;;8.77;2.13;;;;;;;9.32;100.00;100572.56;5034674;28;20522;-80
2022/11/09 05:21:37;;;;;;;12.98;2.17;;;;;;;9.30;100.00;100565.69;5034587;28;20057;-79
2022/11/09 05:24:03;;;;;;;15.27;2.28;;;;;;;9.25;100.00;100557.31;5033023;28;20175;-79
2022/11/09 05:26:37;;;;;;;10.93;2.33;;;;;;;9.20;100.00;100571.00;5034402;28;20382;-77
2022/11/09 05:29:05;;;;;;;11.68;1.88;;;;;;;9.23;100.00;100567.25;5034354;28;20033;-81
2022/11/09 05:31:31;;;;;;;14.48;2.58;;;;;;;9.22;100.00;100570.88;5034033;28;20104;-78
2022/11/09 05:33:57;;;;;;;10.27;1.90;;;;;;;9.25;100.00;100567.94;5032943;28;20044;-80
2022/11/09 05:36:22;;;;;;;11.90;2.22;;;;;;;9.22;100.00;100566.38;5034368;28;20029;-79
2022/11/09 05:38:48;;;;;;;10.73;2.08;;;;;;;9.17;100.00;100569.47;5034368;28;20063;-83
2022/11/09 05:41:14;;;;;;;9.32;2.05;;;;;;;9.18;100.00;100572.94;5033825;28;20101;-81
2022/11/09 05:43:39;;;;;;;15.45;2.08;;;;;;;9.13;100.00;100573.34;5033847;28;20105;-81
2022/11/09 05:46:05;;;;;;;10.13;2.33;;;;;;;9.10;100.00;100573.63;5034627;28;20398;-80
2022/11/09 05:48:31;;;;;;;13.90;2.28;;;;;;;9.08;100.00;100578.25;5033892;28;20390;-81
2022/11/09 05:51:01;;;;;;;13.30;2.88;;;;;;;9.06;100.00;100576.69;5033564;28;20450;-80
2022/11/09 05:53:26;;;;;;;12.68;2.05;;;;;;;9.07;100.00;100573.06;5033912;28;20037;-81
2022/11/09 05:55:52;;;;;;;13.00;1.90;;;;;;;9.08;100.00;100572.94;5033632;28;20045;-80
2022/11/09 05:58:17;;;;;;;9.48;1.95;;;;;;;9.07;100.00;100567.75;5033294;28;20037;-80
2022/11/09 06:00:43;;;;;;;13.60;2.08;;;;;;;9.05;100.00;100572.38;5033792;28;20041;-81
2022/11/09 06:03:10;;;;;;;13.65;2.13;;;;;;;9.08;100.00;100572.94;5033705;28;20120;-80
2022/11/09 06:05:37;;;;;;;12.82;1.88;;;;;;;9.06;100.00;100572.25;5033523;28;20033;-81
2022/11/09 06:08:04;;;;;;;6.45;1.80;;;;;;;9.05;100.00;100578.53;5032017;28;20436;-79
2022/11/09 06:10:30;;;;;;;18.02;2.47;;;;;;;9.06;100.00;100574.03;5033263;28;20386;-75
2022/11/09 06:12:56;;;;;;;9.57;1.70;;;;;;;9.03;100.00;100569.00;5033516;28;20030;-83
2022/11/09 06:15:21;;;;;;;11.05;2.13;;;;;;;8.99;100.00;100581.72;5033964;28;20036;-81
2022/11/09 06:17:54;;;;;;;11.20;2.38;;;;;;;8.94;100.00;100592.75;5033775;28;20029;-79
2022/11/09 06:20:20;;;;;;;12.82;2.28;;;;;;;9.02;100.00;100592.06;5033367;28;20102;-81
2022/11/09 06:22:53;;;;;;;14.18;2.28;;;;;;;9.01;100.00;100582.41;5033808;28;20032;-79
2022/11/09 06:25:19;;;;;;;13.95;2.03;;;;;;;9.06;100.00;100596.13;5033338;28;20025;-82
2022/11/09 06:27:44;;;;;;;14.23;2.60;;;;;;;9.07;100.00;100583.69;5032047;28;20040;-78
2022/11/09 06:30:10;;;;;;;14.52;2.00;;;;;;;9.06;100.00;100585.50;5033277;28;20079;-77
2022/11/09 06:32:35;;;;;;;15.18;2.67;;;;;;;9.09;100.00;100600.31;5031834;28;20124;-82
2022/11/09 06:35:01;;;;;;;11.82;2.75;;;;;;;9.16;100.00;100588.19;5031881;28;20033;-78
2022/11/09 06:37:26;;;;;;;16.92;2.03;;;;;;;9.21;100.00;100593.94;5033171;28;20061;-79
2022/11/09 06:39:52;;;;;;;11.75;1.73;;;;;;;9.23;100.00;100593.81;5033752;28;20029;-76
2022/11/09 06:42:17;;;;;;;10.57;2.30;;;;;;;9.25;100.00;100597.97;5033336;28;20033;-77
2022/11/09 06:44:42;;;;;;;8.60;2.33;;;;;;;9.23;100.00;100599.94;5032133;28;20544;-79
2022/11/09 06:47:08;;;;;;;10.77;2.10;;;;;;;9.22;100.00;100595.59;5033211;28;20037;-77
2022/11/09 06:49:33;;;;;;;12.88;2.03;;;;;;;9.16;100.00;100599.63;5048671;28;20041;-79
2022/11/09 06:51:58;;;;;;;12.75;2.38;;;;;;;9.15;100.00;100603.28;5032791;28;20030;-78
2022/11/09 06:54:24;;;;;;;8.80;2.30;;;;;;;9.15;100.00;100590.00;5033454;28;20029;-77
2022/11/09 06:56:49;;;;;;;8.05;1.83;;;;;;;9.17;100.00;100605.78;5032587;28;20048;-79
2022/11/09 06:59:14;;;;;;;18.25;2.42;;;;;;;9.20;100.00;100607.34;5032888;28;20033;-77
2022/11/09 07:01:40;;;;;;;9.43;2.00;;;;;;;9.22;100.00;100614.19;5032973;28;20029;-80
2022/11/09 07:04:05;;;;;;;14.20;2.50;;;;;;;9.26;100.00;100615.59;5036018;28;20375;-74
2022/11/09 07:06:30;;;;;;;10.38;1.83;;;;;;;9.29;100.00;100607.34;5033078;28;20512;-76
2022/11/09 07:08:56;;;;;;;9.13;2.05;;;;;;;9.32;100.00;100599.13;5032099;28;20040;-80
2022/11/09 07:11:22;;;;;;;11.40;2.72;;;;;;;9.36;100.00;100597.03;5035011;28;20486;-76
2022/11/09 07:13:48;;;;;;;13.90;2.67;;;;;;;9.40;100.00;100597.59;5036628;28;20378;-76
2022/11/09 07:16:16;;;;;;;9.75;1.90;;;;;;;9.48;100.00;100603.03;5036390;28;20030;-76
2022/11/09 07:18:42;;;;;;;12.90;2.38;;;;;;;9.55;100.00;100598.03;5038047;28;20068;-76
2022/11/09 07:21:08;;;;;;;10.52;2.45;;;;;;;9.57;100.00;100602.25;5036523;28;20425;-76
2022/11/09 07:23:34;;;;;;;8.35;2.42;;;;;;;9.58;100.00;100606.56;5036641;28;20087;-79
2022/11/09 07:25:59;;;;;;;12.98;2.80;;;;;;;9.58;100.00;100614.53;5036395;28;20458;-78
2022/11/09 07:28:25;;;;;;;13.38;2.10;;;;;;;9.60;100.00;100623.22;5036559;28;20033;-80
2022/11/09 07:30:51;;;;;;;12.07;2.35;;;;;;;9.60;100.00;100619.69;5036990;28;20025;-77
2022/11/09 07:33:18;;;;;;;9.55;2.50;;;;;;;9.59;100.00;100626.84;5036372;28;20033;-77
2022/11/09 07:35:44;;;;;;;9.50;2.45;;;;;;;9.61;100.00;100618.72;5039728;28;20037;-80
2022/11/09 07:38:10;;;;;;;11.80;2.47;;;;;;;9.59;100.00;100626.84;5040642;28;20033;-77
2022/11/09 07:40:35;;;;;;;11.13;2.67;;;;;;;9.61;100.00;100622.22;5038193;28;20087;-78
2022/11/09 07:43:02;;;;;;;19.52;2.53;;;;;;;9.69;100.00;100625.03;5036557;28;20411;-78
2022/11/09 07:45:29;;;;;;;17.15;2.47;;;;;;;9.84;100.00;100630.78;5036154;28;20104;-77
2022/11/09 07:48:00;;;;;;;12.57;2.72;;;;;;;10.02;100.00;100622.09;5036962;28;20037;-79
2022/11/09 07:50:26;;;;;;;22.33;2.47;;;;;;;10.24;100.00;100624.47;5035956;28;20033;-80
2022/11/09 07:52:55;;;;;;;20.65;2.78;;;;;;;10.45;100.00;100630.59;5035833;28;20501;-80
2022/11/09 07:55:21;;;;;;;11.85;2.25;;;;;;;10.61;100.00;100630.84;5036157;28;20042;-77
2022/11/09 07:57:46;;;;;;;15.30;2.45;;;;;;;10.67;100.00;100634.75;5035930;28;20047;-80
2022/11/09 08:00:12;;;;;;;8.00;1.95;;;;;;;10.75;100.00;100638.38;5036046;28;20113;-79
2022/11/09 08:02:37;;;;;;;16.00;2.53;;;;;;;10.81;100.00;100631.63;5036104;28;20042;-79
2022/11/09 08:05:03;;;;;;;10.00;2.47;;;;;;;10.85;100.00;100645.47;5035575;28;20021;-79
2022/11/09 08:07:28;;;;;;;11.98;2.10;;;;;;;10.82;100.00;100651.09;5036557;28;20099;-76
2022/11/09 08:09:54;;;;;;;13.45;2.33;;;;;;;10.84;100.00;100647.31;5036843;28;20481;-79
2022/11/09 08:12:19;;;;;;;8.38;2.13;;;;;;;10.81;100.00;100650.25;5036379;28;20421;-76
2022/11/09 08:14:45;;;;;;;12.95;2.60;;;;;;;10.74;100.00;100651.81;5035145;28;20067;-76
2022/11/09 08:17:10;;;;;;;14.65;2.00;;;;;;;10.63;100.00;100652.84;5035321;28;20025;-77
2022/11/09 08:19:35;;;;;;;7.97;2.28;;;;;;;10.53;100.00;100658.16;5035088;28;20059;-77
2022/11/09 08:22:01;;;;;;;15.32;2.53;;;;;;;10.48;100.00;100662.25;5035439;28;20442;-75
2022/11/09 08:24:26;;;;;;;13.90;2.35;;;;;;;10.36;100.00;100667.72;5035124;28;20052;-79
2022/11/09 08:26:51;;;;;;;10.05;2.08;;;;;;;10.33;100.00;100669.78;5035697;28;20067;-79
2022/11/09 08:29:17;;;;;;;11.57;2.15;;;;;;;10.30;100.00;100670.94;5035625;28;20191;-77
2022/11/09 08:31:42;;;;;;;13.40;2.15;;;;;;;10.32;100.00;100660.97;5035498;28;20034;-78
2022/11/09 08:34:13;;;;;;;7.25;1.98;;;;;;;10.37;100.00;100671.22;5035197;28;20475;-77
2022/11/09 08:36:38;;;;;;;15.80;2.25;;;;;;;10.43;100.00;100667.97;5035242;28;20029;-82
2022/11/09 08:39:04;;;;;;;9.82;1.90;;;;;;;10.37;100.00;100671.22;5034535;28;20029;-79
2022/11/09 08:41:29;;;;;;;11.95;2.30;;;;;;;10.36;100.00;100678.38;5035154;28;20112;-79
2022/11/09 08:43:55;;;;;;;13.30;2.22;;;;;;;10.35;100.00;100673.19;5035660;28;20060;-77
2022/11/09 08:46:20;;;;;;;13.10;2.30;;;;;;;10.35;100.00;100675.84;5033950;28;20037;-76
2022/11/09 08:48:46;;;;;;;6.80;2.03;;;;;;;10.41;100.00;100675.28;5034719;28;20044;-78
2022/11/09 08:51:11;;;;;;;11.63;2.40;;;;;;;10.49;100.00;100670.06;5034880;28;20021;-76
2022/11/09 08:53:36;;;;;;;10.38;2.30;;;;;;;10.55;100.00;100677.50;5033889;28;20084;-76
2022/11/09 08:56:06;;;;;;;9.88;2.08;;;;;;;10.70;100.00;100677.03;5034283;28;20125;-77
2022/11/09 08:58:31;;;;;;;12.00;2.60;;;;;;;10.89;100.00;100673.50;5034716;28;20037;-75
2022/11/09 09:00:56;;;;;;;13.10;2.70;;;;;;;11.09;100.00;100676.91;5034288;28;20025;-75
2022/11/09 09:03:22;;;;;;;14.60;3.60;;;;;;;11.11;100.00;100680.28;5034293;28;20037;-77
2022/11/09 09:05:47;;;;;;;15.25;3.40;;;;;;;11.10;100.00;100668.78;5034884;28;20043;-76
2022/11/09 09:08:14;;;;;;;12.90;2.42;;;;;;;11.14;100.00;100677.31;5033533;28;20506;-78
2022/11/09 09:10:40;;;;;;;10.70;2.38;;;;;;;11.22;100.00;100685.41;5034412;28;20056;-79
2022/11/09 09:13:06;;;;;;;11.73;2.20;;;;;;;11.17;100.00;100673.53;5034668;28;20111;-78
2022/11/09 09:15:31;;;;;;;9.77;2.15;;;;;;;11.25;100.00;100678.94;5034070;28;20041;-77
2022/11/09 09:18:01;;;;;;;13.05;2.47;;;;;;;11.31;100.00;100683.69;5034432;28;20089;-78
2022/11/09 09:20:27;;;;;;;8.32;2.30;;;;;;;11.25;100.00;100677.13;5035056;28;20037;-78
2022/11/09 09:22:52;;;;;;;9.45;2.33;;;;;;;11.19;100.00;100671.56;5034540;28;20026;-77
2022/11/09 09:25:18;;;;;;;16.02;2.33;;;;;;;11.14;100.00;100669.34;5034533;28;20029;-77
2022/11/09 09:27:43;;;;;;;14.95;2.80;;;;;;;11.27;100.00;100676.97;5050074;28;20041;-78
2022/11/09 09:30:10;;;;;;;12.70;2.40;;;;;;;11.27;100.00;100682.28;5034489;28;20064;-79
2022/11/09 09:32:35;;;;;;;12.35;2.22;;;;;;;11.33;100.00;100683.53;5034122;28;20026;-78
2022/11/09 09:35:01;;;;;;;10.52;2.17;;;;;;;11.39;100.00;100670.47;5033733;28;20032;-79
2022/11/09 09:37:26;;;;;;;15.20;2.58;;;;;;;11.56;100.00;100686.66;5034383;28;20064;-78
2022/11/09 09:39:52;;;;;;;13.48;2.53;;;;;;;11.54;100.00;100704.59;5034104;28;20432;-84
2022/11/09 09:42:23;;;;;;;16.98;2.60;;;;;;;11.56;100.00;100684.81;5033996;28;20137;-78
2022/11/09 09:45:01;;;;;;;12.90;2.58;;;;;;;11.42;100.00;100696.81;5034076;28;20079;-76
2022/11/09 09:47:38;;;;;;;12.40;2.50;;;;;;;11.37;100.00;100692.91;5034483;28;20037;-77
2022/11/09 09:50:11;;;;;;;20.17;2.95;;;;;;;11.39;100.00;100693.59;5033828;28;20083;-77
2022/11/09 09:52:42;;;;;;;13.15;2.50;;;;;;;11.30;100.00;100703.34;5033894;28;20046;-78
2022/11/09 09:55:11;;;;;;;10.18;2.40;;;;;;;11.23;100.00;100711.06;5033994;28;20082;-77
2022/11/09 09:57:39;;;;;;;11.18;2.53;;;;;;;11.18;100.00;100712.47;5033663;28;20037;-77
2022/11/09 10:00:08;;;;;;;17.08;2.67;;;;;;;11.18;100.00;100713.34;5049389;28;20041;-77
2022/11/09 10:02:35;;;;;;;11.10;2.00;;;;;;;11.20;100.00;100727.31;5033639;28;20079;-77
2022/11/09 10:05:06;;;;;;;12.85;2.65;;;;;;;11.27;100.00;100732.91;5033735;28;20110;-78
2022/11/09 10:07:44;;;;;;;7.88;2.22;;;;;;;11.23;100.00;100728.88;5034087;28;20048;-79
2022/11/09 10:10:19;;;;;;;9.80;2.40;;;;;;;11.23;100.00;100740.34;5034095;28;20033;-79
2022/11/09 10:13:03;;;;;;;10.65;2.53;;;;;;;11.16;100.00;100747.25;5034095;28;20049;-78
2022/11/09 10:15:42;;;;;;;10.80;2.28;;;;;;;10.89;100.00;100748.84;5033597;28;20033;-78
2022/11/09 10:18:22;;;;;;;12.07;2.45;;;;;;;10.66;100.00;100739.50;5033866;28;20029;-78
2022/11/09 10:20:53;;;;;;;13.80;2.78;;;;;;;10.53;100.00;100740.63;5034512;28;20105;-79
2022/11/09 10:23:40;;;;;;;12.57;2.30;;;;;;;10.50;100.00;100742.75;5033899;28;20033;-80
2022/11/09 10:26:28;;;;;;;12.30;2.38;;;;;;;10.46;100.00;100744.84;5033294;28;20033;-77
2022/11/09 10:29:01;;;;;;;12.02;2.40;;;;;;;10.54;100.00;100737.00;5034152;28;20029;-78
2022/11/09 10:31:31;;;;;;;12.80;2.30;;;;;;;10.65;100.00;100744.00;5034135;28;20111;-80
2022/11/09 10:34:02;;;;;;;9.45;2.22;;;;;;;10.74;100.00;100729.81;5033218;28;20034;-79
2022/11/09 10:36:43;;;;;;;10.02;2.50;;;;;;;10.90;100.00;100734.56;5033783;28;20029;-78
2022/11/09 10:39:12;;;;;;;15.98;3.38;;;;;;;11.03;100.00;100733.41;5033360;28;20114;-79
2022/11/09 10:41:45;;;;;;;11.15;2.38;;;;;;;11.12;100.00;100729.88;5033321;28;20192;-79
2022/11/09 10:44:16;;;;;;;14.27;2.92;;;;;;;11.13;100.00;100730.72;5033102;28;20021;-81
2022/11/09 10:47:08;;;;;;;8.15;2.35;;;;;;;11.07;100.00;100742.78;5037766;28;20041;-78
2022/11/09 10:49:35;;;;;;;9.23;2.05;;;;;;;11.03;100.00;100736.06;5038044;28;20405;-77
2022/11/09 10:52:00;;;;;;;8.00;2.08;;;;;;;11.14;100.00;100738.56;5037549;28;20037;-80
2022/11/09 10:54:31;;;;;;;9.73;2.00;;;;;;;11.23;100.00;100716.38;5038333;28;20492;-80
2022/11/09 10:57:11;;;;;;;10.50;2.10;;;;;;;11.25;100.00;100718.91;5038339;28;20087;-80
2022/11/09 10:59:37;;;;;;;6.78;1.77;;;;;;;11.26;100.00;100723.25;5037631;28;20033;-80
2022/11/09 11:02:25;;;;;;;9.30;2.30;;;;;;;11.24;100.00;100717.22;5037287;28;20084;-80
2022/11/09 11:05:12;;;;;;;10.57;2.55;;;;;;;11.28;100.00;100718.59;5038329;28;20112;-80
2022/11/09 11:07:37;;;;;;;12.02;2.28;;;;;;;11.25;100.00;100716.25;5038170;28;20474;-80
2022/11/09 11:10:15;;;;;;;10.30;1.60;;;;;;;11.18;100.00;100718.66;5037048;28;20037;-80
2022/11/09 11:12:59;;;;;;;8.73;1.70;;;;;;;11.17;100.00;100724.13;5036647;28;20540;-81
2022/11/09 11:15:30;;;;;;;6.68;1.48;;;;;;;11.16;100.00;100736.59;5037552;28;20077;-81
2022/11/09 11:18:01;;;;;;;5.47;1.80;;;;;;;11.13;100.00;100734.22;5036171;28;20030;-78